Startpagina
METAR-TAF:

METAR-TAF

Vliegvelden :

Juigalpa, Nicaragua

breedte: 12-06N, lengte: 085-22W, hoogte: 90 m

Actueel weer

Dit bericht is 9 uur en het 44 minuten geleden gemaakt, om 23:00 UTC
Wind 12 kt uit het oosten
Temperatuur 29°C
Vochtigheid 70%
Druk 1011 hPa
Zicht 10 km of meer
Verspreide wolken op 2000 ft, Cumulonimbus.
Verspreide wolken op 8000 ft
onweer

METAR: MNJU 222300Z 08012KT 9999 TS SCT020CB SCT080 29/23 Q1011 CB NE E SE

Tijdstip: 02:44 (08:44 UTC)


TAF: ontbreekt

Waarnemingen en weersverwachtingen van meer dan 4000 vliegvelden (METAR en TAF).

De beschikbare stations zijn de gele en rode punten op de kaart.

Ga met uw muis naar het station om de naam te zien.

Klik dan om waarnemingen en weersverwachtingen te zien.

kaart wijzigen: klik op de groene knoppen met een zwart kruis om in te zoomen, op de groene knop met een streepje om uit te zoomen of op de groene pijlen voor aangrenzende kaarten.


METAR-TAF: